LJPZ/POW METAR and TAF weather

Enter ICAO airport designator
Station Type Date Time Source
LJPZ METAR 2019/06/16 21:00 UTC NOAA

LJPZ 162100Z AUTO 13004KT 100V160 9999 NSC 22/18 Q1013


Station Type Date Time Source
LJPZ Decoded METAR 2019/06/16 21:00 UTC NOAA

Portoroz, Slovenia (LJPZ) 45-31N 013-34E
Jun 16, 2019 - 05:00 PM EDT / 2019.06.16 2100 UTC
Wind: from the SE (130 degrees) at 5 MPH (4 KT) (direction variable):0
Visibility: greater than 7 mile(s):0
Temperature: 71 F (22 C)
Dew Point: 64 F (18 C)
Relative Humidity: 78%
Pressure (altimeter): 29.91 in. Hg (1013 hPa)
ob: LJPZ 162100Z AUTO 13004KT 100V160 9999 NSC 22/18 Q1013
cycle: 21

Station Type Date Time Source
LJPZ TAF 2008/06/02 05:30 UTC NOAA

TAF TAF LJPZ 020530Z 021615 VRB02KT 6000 NSC
BECMG 0911 30005KT 9999 FEW040

Example: see airport list